Time;durP1;ratioP1;P1;durP2;ratioP2;P2;SDS_P1;SDS_P2;PMS_P1;PMS_P2;Temp;Humidity;BMP_temperature;BMP_pressure;BME280_temperature;BME280_humidity;BME280_pressure;Samples;Min_cycle;Max_cycle;Signal;HPM_P1;HPM_P2
2023/11/28 00:01:30;;;;;;;6.40;5.60;;;;;;;0.12;100.00;98872.47;5026636;28;20229;-72
2023/11/28 00:03:57;;;;;;;7.37;5.97;;;;;;;0.11;100.00;98871.59;5021356;28;20692;-73
2023/11/28 00:06:23;;;;;;;6.47;5.00;;;;;;;0.10;100.00;98874.31;5041135;28;20549;-73
2023/11/28 00:08:50;;;;;;;6.50;5.33;;;;;;;0.08;100.00;98876.13;5038695;28;20213;-74
2023/11/28 00:11:18;;;;;;;5.33;4.83;;;;;;;0.09;100.00;98875.22;5038680;28;20209;-73
2023/11/28 00:13:45;;;;;;;4.70;4.17;;;;;;;0.08;100.00;98881.38;5040544;28;20291;-74
2023/11/28 00:16:13;;;;;;;6.20;5.00;;;;;;;0.05;100.00;98881.53;5040352;28;20208;-74
2023/11/28 00:18:39;;;;;;;5.73;4.03;;;;;;;0.03;100.00;98878.13;5042588;28;20264;-73
2023/11/28 00:21:06;;;;;;;6.83;5.37;;;;;;;0.00;100.00;98879.97;5040947;28;20210;-73
2023/11/28 00:23:33;;;;;;;6.17;5.23;;;;;;;0.00;100.00;98879.97;5039990;28;20245;-74
2023/11/28 00:25:59;;;;;;;3.13;2.63;;;;;;;-0.02;100.00;98886.22;5033080;28;20217;-73
2023/11/28 00:28:26;;;;;;;7.10;5.73;;;;;;;-0.03;100.00;98890.59;5036180;28;20209;-73
2023/11/28 00:30:53;;;;;;;5.93;5.30;;;;;;;-0.04;100.00;98888.91;5037900;28;20283;-73
2023/11/28 00:33:21;;;;;;;6.40;5.20;;;;;;;-0.05;100.00;98889.84;5041512;28;20267;-73
2023/11/28 00:35:47;;;;;;;7.00;4.93;;;;;;;-0.05;100.00;98889.84;5040672;28;20309;-73
2023/11/28 00:38:14;;;;;;;5.37;4.57;;;;;;;-0.07;100.00;98883.81;5036065;28;20213;-74
2023/11/28 00:40:41;;;;;;;7.20;5.63;;;;;;;-0.05;100.00;98887.22;5026288;28;20206;-73
2023/11/28 00:43:08;;;;;;;4.30;3.83;;;;;;;-0.06;100.00;98887.28;5035906;28;20221;-73
2023/11/28 00:45:35;;;;;;;4.73;4.17;;;;;;;-0.07;100.00;98886.44;5038002;28;20693;-72
2023/11/28 00:48:01;;;;;;;5.47;4.43;;;;;;;-0.06;100.00;98897.75;5032556;28;20692;-74
2023/11/28 00:50:29;;;;;;;6.23;4.47;;;;;;;-0.06;100.00;98898.59;5035746;28;20205;-73
2023/11/28 00:52:55;;;;;;;7.93;5.00;;;;;;;-0.06;100.00;98890.75;5041158;28;20229;-73
2023/11/28 00:55:23;;;;;;;6.60;4.93;;;;;;;-0.07;100.00;98888.22;5045943;28;20602;-75
2023/11/28 00:57:49;;;;;;;7.07;5.43;;;;;;;-0.07;100.00;98899.53;5029158;28;20275;-75
2023/11/28 01:00:17;;;;;;;7.13;5.43;;;;;;;-0.09;100.00;98897.91;5032895;28;20212;-76
2023/11/28 01:02:43;;;;;;;5.33;4.07;;;;;;;-0.09;100.00;98908.38;5041039;28;20233;-72
2023/11/28 01:05:10;;;;;;;6.17;5.57;;;;;;;-0.11;100.00;98907.59;5035906;28;20213;-72
2023/11/28 01:07:38;;;;;;;6.13;4.50;;;;;;;-0.14;100.00;98913.81;5042310;28;20206;-73
2023/11/28 01:10:07;;;;;;;6.87;5.73;;;;;;;-0.15;100.00;98917.34;5042358;28;20224;-73
2023/11/28 01:12:33;;;;;;;6.53;5.23;;;;;;;-0.17;100.00;98916.56;5041945;28;20241;-73
2023/11/28 01:15:00;;;;;;;3.80;2.60;;;;;;;-0.18;100.00;98917.47;5043968;28;20236;-75
2023/11/28 01:17:26;;;;;;;7.10;5.63;;;;;;;-0.19;100.00;98913.19;5043689;28;20201;-73
2023/11/28 01:19:53;;;;;;;6.20;5.50;;;;;;;-0.20;100.00;98911.50;5036981;28;20213;-73
2023/11/28 01:22:19;;;;;;;6.27;5.00;;;;;;;-0.21;100.00;98920.28;5041663;28;20586;-73
2023/11/28 01:24:47;;;;;;;5.33;4.77;;;;;;;-0.21;100.00;98927.25;5044660;28;20216;-73
2023/11/28 01:27:13;;;;;;;5.43;4.30;;;;;;;-0.21;100.00;98925.50;5044630;28;20205;-72
2023/11/28 01:29:41;;;;;;;5.00;3.13;;;;;;;-0.21;100.00;98932.50;5043909;28;20220;-73
2023/11/28 01:32:07;;;;;;;4.33;3.93;;;;;;;-0.22;100.00;98933.41;5046899;28;20731;-73
2023/11/28 01:34:34;;;;;;;6.00;4.97;;;;;;;-0.22;100.00;98931.66;5041010;28;20230;-72
2023/11/28 01:37:00;;;;;;;5.33;4.10;;;;;;;-0.23;100.00;98929.94;5044617;28;20214;-74
2023/11/28 01:39:27;;;;;;;6.23;4.87;;;;;;;-0.23;100.00;98936.94;5040173;28;20572;-73
2023/11/28 01:41:55;;;;;;;4.67;3.23;;;;;;;-0.24;100.00;98932.63;5041919;28;20221;-73
2023/11/28 01:44:22;;;;;;;5.60;4.67;;;;;;;-0.26;100.00;98937.94;5043809;28;20233;-73
2023/11/28 01:46:51;;;;;;;6.97;4.93;;;;;;;-0.25;100.00;98930.94;5047234;28;20267;-75
2023/11/28 01:49:19;;;;;;;5.07;3.77;;;;;;;-0.25;100.00;98944.03;5042854;28;20683;-72
2023/11/28 01:51:46;;;;;;;5.17;4.67;;;;;;;-0.25;100.00;98942.25;5041119;28;20240;-73
2023/11/28 01:54:14;;;;;;;4.17;3.70;;;;;;;-0.28;100.00;98939.78;5038728;28;20243;-73
2023/11/28 01:56:42;;;;;;;5.07;4.30;;;;;;;-0.26;100.00;98948.41;5042800;28;20213;-73
2023/11/28 01:59:10;;;;;;;6.20;4.53;;;;;;;-0.25;100.00;98950.09;5042528;28;20206;-72
2023/11/28 02:01:37;;;;;;;4.90;4.23;;;;;;;-0.24;100.00;98953.56;5045616;28;20696;-73
2023/11/28 02:04:04;;;;;;;4.50;2.97;;;;;;;-0.26;100.00;98951.03;5042835;28;20201;-73
2023/11/28 02:06:31;;;;;;;5.57;4.57;;;;;;;-0.26;100.00;98953.63;5047764;28;20267;-73
2023/11/28 02:08:57;;;;;;;5.17;3.83;;;;;;;-0.28;100.00;98958.09;5044483;28;20214;-73
2023/11/28 02:11:24;;;;;;;5.60;4.03;;;;;;;-0.28;100.00;98954.63;5035248;28;20207;-73
2023/11/28 02:13:50;;;;;;;5.47;3.50;;;;;;;-0.29;100.00;98955.53;5039976;28;20725;-73
2023/11/28 02:16:18;;;;;;;6.17;4.77;;;;;;;-0.28;100.00;98962.47;5044925;28;20293;-72
2023/11/28 02:18:45;;;;;;;5.50;4.77;;;;;;;-0.30;100.00;98965.16;5041855;28;20206;-72
2023/11/28 02:21:12;;;;;;;5.63;3.57;;;;;;;-0.31;100.00;98968.69;5046128;28;20205;-72
2023/11/28 02:23:39;;;;;;;5.27;4.27;;;;;;;-0.32;100.00;98971.38;5036451;28;20212;-72
2023/11/28 02:26:15;;;;;;;5.13;3.77;;;;;;;-0.32;100.00;98961.75;5034887;28;20213;-72
2023/11/28 02:28:41;;;;;;;5.83;3.50;;;;;;;-0.30;100.00;98970.38;5040483;28;20205;-72
2023/11/28 02:31:09;;;;;;;6.50;3.93;;;;;;;-0.31;100.00;98973.06;5041462;28;20205;-72
2023/11/28 02:33:36;;;;;;;3.37;2.57;;;;;;;-0.32;100.00;98977.44;5045716;28;20229;-72
2023/11/28 02:36:02;;;;;;;5.13;4.07;;;;;;;-0.33;100.00;98972.28;5037028;28;20228;-73
2023/11/28 02:38:29;;;;;;;4.57;3.90;;;;;;;-0.36;100.00;98971.50;5039924;28;20210;-73
2023/11/28 02:40:55;;;;;;;5.93;4.43;;;;;;;-0.38;100.00;98980.38;5038835;28;20587;-72
2023/11/28 02:43:23;;;;;;;6.30;4.27;;;;;;;-0.37;100.00;98982.06;5042584;28;20244;-72
2023/11/28 02:45:49;;;;;;;4.83;3.13;;;;;;;-0.39;100.00;98982.13;5042997;28;20587;-72
2023/11/28 02:48:16;;;;;;;3.47;2.53;;;;;;;-0.39;100.00;98984.75;5027493;28;20210;-74
2023/11/28 02:50:42;;;;;;;3.00;2.27;;;;;;;-0.39;100.00;98997.81;5042613;28;20213;-72
2023/11/28 02:53:09;;;;;;;4.10;3.23;;;;;;;-0.39;100.00;98991.75;5041001;28;20225;-72
2023/11/28 02:55:35;;;;;;;4.80;3.17;;;;;;;-0.40;100.00;98990.03;5042368;28;20201;-72
2023/11/28 02:58:02;;;;;;;4.30;3.40;;;;;;;-0.40;100.00;98996.13;5040723;28;20206;-73
2023/11/28 03:00:30;;;;;;;4.43;3.57;;;;;;;-0.39;100.00;98994.34;5041514;28;20210;-72
2023/11/28 03:02:56;;;;;;;6.67;4.83;;;;;;;-0.41;100.00;98997.03;5043007;28;20252;-73
2023/11/28 03:05:23;;;;;;;4.90;3.50;;;;;;;-0.42;100.00;98992.72;5042795;28;20213;-73
2023/11/28 03:07:49;;;;;;;6.13;4.60;;;;;;;-0.43;100.00;98998.88;5041532;28;20218;-73
2023/11/28 03:10:16;;;;;;;8.33;5.07;;;;;;;-0.42;100.00;98992.72;5042796;28;20201;-72
2023/11/28 03:12:42;;;;;;;5.77;3.77;;;;;;;-0.43;100.00;99005.88;5040246;28;20225;-75
2023/11/28 03:15:09;;;;;;;7.23;4.83;;;;;;;-0.42;100.00;99002.34;5043659;28;20233;-73
2023/11/28 03:17:37;;;;;;;5.43;3.63;;;;;;;-0.43;100.00;99004.09;5042708;28;20208;-73
2023/11/28 03:20:04;;;;;;;8.53;4.93;;;;;;;-0.42;100.00;98999.72;5041155;28;20229;-73
2023/11/28 03:22:31;;;;;;;9.93;5.20;;;;;;;-0.43;100.00;99006.72;5044076;28;20344;-72
2023/11/28 03:25:06;;;;;;;5.20;4.33;;;;;;;-0.43;100.00;99016.34;5042916;28;20208;-72
2023/11/28 03:27:33;;;;;;;8.07;5.07;;;;;;;-0.45;100.00;99013.78;5041000;28;20209;-72
2023/11/28 03:29:59;;;;;;;6.50;5.40;;;;;;;-0.44;100.00;99009.41;5042427;28;20213;-73
2023/11/28 03:32:25;;;;;;;7.87;5.80;;;;;;;-0.44;100.00;99014.63;5042194;28;20229;-71
2023/11/28 03:34:53;;;;;;;5.83;3.93;;;;;;;-0.43;100.00;99018.94;5041235;28;20232;-72
2023/11/28 03:37:20;;;;;;;5.00;3.50;;;;;;;-0.44;100.00;99032.94;5044030;28;20212;-72
2023/11/28 03:39:46;;;;;;;4.63;4.07;;;;;;;-0.46;100.00;99030.38;5042077;28;20217;-72
2023/11/28 03:42:13;;;;;;;7.40;5.43;;;;;;;-0.46;100.00;99022.53;5041725;28;20226;-72
2023/11/28 03:44:39;;;;;;;11.67;4.43;;;;;;;-0.46;100.00;99029.53;5040467;28;20213;-72
2023/11/28 03:47:06;;;;;;;7.67;4.90;;;;;;;-0.46;100.00;99032.16;5040639;28;20221;-72
2023/11/28 03:49:33;;;;;;;6.13;4.33;;;;;;;-0.48;100.00;99034.84;5042610;28;20206;-72
2023/11/28 03:52:01;;;;;;;8.57;5.30;;;;;;;-0.49;100.00;99030.53;5043036;28;20733;-71
2023/11/28 03:54:27;;;;;;;8.67;5.80;;;;;;;-0.49;100.00;99033.13;5043337;28;20568;-72
2023/11/28 03:56:54;;;;;;;8.77;5.70;;;;;;;-0.48;100.00;99036.59;5043626;28;20580;-72
2023/11/28 03:59:20;;;;;;;7.87;4.90;;;;;;;-0.49;100.00;99040.97;5040881;28;20206;-72
2023/11/28 04:01:47;;;;;;;6.80;4.60;;;;;;;-0.51;100.00;99048.03;5037421;28;20238;-72
2023/11/28 04:04:13;;;;;;;9.27;5.47;;;;;;;-0.50;100.00;99046.28;5044508;28;20201;-72
2023/11/28 04:06:40;;;;;;;7.87;4.57;;;;;;;-0.49;100.00;99054.06;5040395;28;20218;-72
2023/11/28 04:09:07;;;;;;;7.80;4.33;;;;;;;-0.48;100.00;99065.38;5043039;28;20213;-72
2023/11/28 04:11:36;;;;;;;8.90;5.43;;;;;;;-0.47;100.00;99069.69;5038925;28;20225;-72
2023/11/28 04:14:03;;;;;;;7.47;5.43;;;;;;;-0.49;100.00;99067.13;5038814;28;20218;-72
2023/11/28 04:16:29;;;;;;;7.73;5.03;;;;;;;-0.49;100.00;99068.91;5040684;28;20316;-74
2023/11/28 04:18:56;;;;;;;6.13;4.10;;;;;;;-0.49;100.00;99074.13;5039902;28;20213;-72
2023/11/28 04:21:22;;;;;;;6.80;4.30;;;;;;;-0.50;100.00;99083.72;5037922;28;20216;-72
2023/11/28 04:23:49;;;;;;;7.90;5.73;;;;;;;-0.47;100.00;99077.53;5042154;28;20632;-75
2023/11/28 04:26:17;;;;;;;7.10;4.90;;;;;;;-0.47;100.00;99077.53;5039721;28;20307;-72
2023/11/28 04:28:43;;;;;;;7.43;4.93;;;;;;;-0.47;100.00;99088.00;5044630;28;20296;-72
2023/11/28 04:31:17;;;;;;;6.83;4.87;;;;;;;-0.48;100.00;99091.53;5047242;28;20205;-73
2023/11/28 04:33:43;;;;;;;7.03;4.87;;;;;;;-0.51;100.00;99096.88;5045443;28;20708;-72
2023/11/28 04:36:10;;;;;;;7.33;4.53;;;;;;;-0.52;100.00;99097.78;5043543;28;20201;-73
2023/11/28 04:38:37;;;;;;;7.93;4.80;;;;;;;-0.53;100.00;99093.47;5044322;28;20213;-72
2023/11/28 04:41:04;;;;;;;5.13;4.07;;;;;;;-0.52;100.00;99097.78;5044475;28;20213;-72
2023/11/28 04:43:31;;;;;;;7.73;5.10;;;;;;;-0.53;100.00;99094.31;5042613;28;20749;-72
2023/11/28 04:45:58;;;;;;;7.73;4.40;;;;;;;-0.53;100.00;99102.16;5047089;28;20681;-72
2023/11/28 04:48:24;;;;;;;8.80;5.60;;;;;;;-0.54;100.00;99104.88;5045553;28;20474;-71
2023/11/28 04:50:51;;;;;;;7.07;4.60;;;;;;;-0.55;100.00;99108.41;5040961;28;20245;-72
2023/11/28 04:53:17;;;;;;;7.03;4.73;;;;;;;-0.56;100.00;99107.56;5040580;28;20226;-72
2023/11/28 04:55:44;;;;;;;7.77;5.23;;;;;;;-0.57;100.00;99108.47;5041572;28;20209;-72
2023/11/28 04:58:10;;;;;;;7.57;3.43;;;;;;;-0.60;100.00;99108.59;5044636;28;20201;-72
2023/11/28 05:00:38;;;;;;;6.73;4.97;;;;;;;-0.61;100.00;99117.34;5044072;28;20201;-73
2023/11/28 05:03:04;;;;;;;5.73;4.13;;;;;;;-0.62;100.00;99125.25;5042119;28;20232;-73
2023/11/28 05:05:31;;;;;;;9.40;4.97;;;;;;;-0.65;100.00;99123.63;5046768;28;20272;-72
2023/11/28 05:07:58;;;;;;;7.80;4.63;;;;;;;-0.66;100.00;99124.53;5046168;28;20198;-70
2023/11/28 05:10:24;;;;;;;8.23;4.63;;;;;;;-0.66;100.00;99131.53;5042189;28;20291;-72
2023/11/28 05:12:51;;;;;;;7.90;4.50;;;;;;;-0.67;100.00;99132.44;5043716;28;20229;-72
2023/11/28 05:15:17;;;;;;;8.40;5.13;;;;;;;-0.68;100.00;99138.56;5043479;28;20471;-72
2023/11/28 05:17:45;;;;;;;7.93;5.90;;;;;;;-0.72;100.00;99141.31;5045537;28;20202;-72
2023/11/28 05:20:12;;;;;;;9.90;5.63;;;;;;;-0.71;100.00;99134.31;5044433;28;20210;-72
2023/11/28 05:22:39;;;;;;;8.20;5.20;;;;;;;-0.73;100.00;99144.88;5044434;28;20224;-72
2023/11/28 05:25:06;;;;;;;9.20;5.40;;;;;;;-0.74;100.00;99148.41;5043568;28;20209;-72
2023/11/28 05:27:33;;;;;;;11.30;5.80;;;;;;;-0.72;100.00;99148.34;5036949;28;20660;-73
2023/11/28 05:29:59;;;;;;;9.67;5.20;;;;;;;-0.75;100.00;99157.16;5038477;28;20218;-72
2023/11/28 05:32:26;;;;;;;8.37;4.53;;;;;;;-0.75;100.00;99170.22;5037295;28;20604;-73
2023/11/28 05:34:54;;;;;;;7.03;3.90;;;;;;;-0.77;100.00;99172.03;5036716;28;20234;-72
2023/11/28 05:37:23;;;;;;;10.13;5.30;;;;;;;-0.77;100.00;99176.41;5041216;28;20231;-71
2023/11/28 05:39:50;;;;;;;11.43;5.70;;;;;;;-0.77;100.00;99179.03;5044626;28;20216;-72
2023/11/28 05:42:16;;;;;;;7.97;4.47;;;;;;;-0.79;100.00;99176.47;5042184;28;20225;-72
2023/11/28 05:44:43;;;;;;;7.67;4.67;;;;;;;-0.79;100.00;99186.94;5041454;28;20205;-72
2023/11/28 05:47:10;;;;;;;8.50;4.93;;;;;;;-0.81;100.00;99178.31;5032948;28;20214;-72
2023/11/28 05:49:36;;;;;;;10.53;4.50;;;;;;;-0.85;100.00;99189.78;5031740;28;20216;-75
2023/11/28 05:52:04;;;;;;;11.63;5.07;;;;;;;-0.88;100.00;99196.88;5037175;28;20275;-72
2023/11/28 05:54:31;;;;;;;7.17;4.37;;;;;;;-0.90;100.00;99194.38;5044221;28;20290;-72
2023/11/28 05:56:57;;;;;;;7.53;5.07;;;;;;;-0.90;100.00;99198.75;5043584;28;20208;-72
2023/11/28 05:59:24;;;;;;;6.40;4.60;;;;;;;-0.94;100.00;99207.63;5043797;28;20202;-72
2023/11/28 06:01:59;;;;;;;10.67;3.60;;;;;;;-0.94;100.00;99208.47;5039415;28;20609;-72
2023/11/28 06:04:26;;;;;;;8.87;4.53;;;;;;;-0.94;100.00;99218.91;5041026;28;20259;-72
2023/11/28 06:06:52;;;;;;;9.33;4.57;;;;;;;-0.96;100.00;99220.72;5039465;28;20264;-73
2023/11/28 06:09:20;;;;;;;8.57;4.63;;;;;;;-0.99;100.00;99226.06;5041600;28;20212;-73
2023/11/28 06:11:47;;;;;;;8.50;3.63;;;;;;;-1.01;100.00;99222.66;5024302;28;20306;-72
2023/11/28 06:14:13;;;;;;;6.40;3.83;;;;;;;-1.00;100.00;99224.38;5040080;28;20261;-72
2023/11/28 06:16:40;;;;;;;8.67;4.70;;;;;;;-0.99;100.00;99236.53;5035213;28;20205;-73
2023/11/28 06:19:07;;;;;;;10.03;5.23;;;;;;;-1.00;100.00;99240.06;5041229;28;20225;-72
2023/11/28 06:21:33;;;;;;;7.00;2.97;;;;;;;-0.97;100.00;99246.91;5043731;28;20576;-73
2023/11/28 06:24:00;;;;;;;15.27;5.80;;;;;;;-0.99;100.00;99251.34;5041512;28;20472;-71
2023/11/28 06:26:28;;;;;;;6.80;4.10;;;;;;;-0.95;100.00;99253.78;5041297;28;20209;-73
2023/11/28 06:28:54;;;;;;;7.47;4.23;;;;;;;-0.99;100.00;99254.81;5044915;28;20213;-73
2023/11/28 06:31:24;;;;;;;5.10;3.50;;;;;;;-1.01;100.00;99264.47;5041239;28;20212;-74
2023/11/28 06:33:50;;;;;;;4.93;3.10;;;;;;;-1.01;100.00;99263.63;5041474;28;20216;-71
2023/11/28 06:36:18;;;;;;;6.63;3.87;;;;;;;-1.03;100.00;99268.91;5040319;28;20206;-71
2023/11/28 06:38:45;;;;;;;6.47;3.60;;;;;;;-1.06;100.00;99279.47;5038183;28;20288;-72
2023/11/28 06:41:11;;;;;;;7.47;4.40;;;;;;;-1.07;100.00;99281.22;5038434;28;20213;-72
2023/11/28 06:43:39;;;;;;;5.87;3.60;;;;;;;-1.03;100.00;99294.19;5042175;28;20577;-72
2023/11/28 06:46:06;;;;;;;10.63;4.10;;;;;;;-1.02;100.00;99294.13;5044008;28;20212;-73
2023/11/28 06:48:32;;;;;;;6.13;3.70;;;;;;;-1.02;100.00;99296.75;5045301;28;20198;-74
2023/11/28 06:51:00;;;;;;;5.83;3.83;;;;;;;-1.03;100.00;99307.25;5038034;28;20217;-73
2023/11/28 06:53:27;;;;;;;4.63;3.60;;;;;;;-1.06;100.00;99310.81;5041359;28;20275;-74
2023/11/28 06:55:53;;;;;;;7.20;3.83;;;;;;;-1.08;100.00;99315.28;5036053;28;20714;-74
2023/11/28 06:58:20;;;;;;;5.83;3.47;;;;;;;-1.08;100.00;99325.72;5045474;28;20428;-73
2023/11/28 07:00:48;;;;;;;6.17;3.43;;;;;;;-1.11;100.00;99326.69;5039763;28;20238;-73
2023/11/28 07:03:15;;;;;;;5.90;3.20;;;;;;;-1.11;100.00;99331.91;5040335;28;20218;-73
2023/11/28 07:05:41;;;;;;;7.77;3.30;;;;;;;-1.11;100.00;99341.50;5045879;28;20252;-73
2023/11/28 07:08:08;;;;;;;6.60;3.63;;;;;;;-1.11;100.00;99346.75;5042096;28;20201;-73
2023/11/28 07:10:34;;;;;;;7.17;3.60;;;;;;;-1.10;100.00;99354.53;5045793;28;20216;-72
2023/11/28 07:13:01;;;;;;;5.80;3.40;;;;;;;-1.10;100.00;99353.66;5042180;28;20241;-73
2023/11/28 07:15:27;;;;;;;6.77;3.80;;;;;;;-1.10;100.00;99356.28;5044159;28;20229;-72
2023/11/28 07:17:55;;;;;;;5.43;3.73;;;;;;;-1.09;100.00;99358.00;5043348;28;20224;-73
2023/11/28 07:20:21;;;;;;;7.07;3.43;;;;;;;-1.09;100.00;99356.22;5043559;28;20204;-74
2023/11/28 07:22:48;;;;;;;5.70;3.13;;;;;;;-1.10;100.00;99366.72;5042685;28;20251;-74
2023/11/28 07:25:15;;;;;;;6.03;3.03;;;;;;;-1.10;100.00;99371.97;5044427;28;20209;-74
2023/11/28 07:27:41;;;;;;;6.03;3.20;;;;;;;-1.12;100.00;99371.16;5039053;28;20213;-74
2023/11/28 07:30:09;;;;;;;5.00;3.03;;;;;;;-1.09;100.00;99381.50;5041068;28;20201;-75
2023/11/28 07:32:35;;;;;;;6.50;3.10;;;;;;;-1.11;100.00;99381.56;5042209;28;20603;-74
2023/11/28 07:35:03;;;;;;;3.80;2.30;;;;;;;-1.13;100.00;99379.91;5044725;28;20222;-74
2023/11/28 07:37:30;;;;;;;3.67;2.50;;;;;;;-1.13;100.00;99390.34;5045657;28;20214;-75
2023/11/28 07:39:57;;;;;;;3.97;2.80;;;;;;;-1.14;100.00;99393.88;5041831;28;20312;-75
2023/11/28 07:42:23;;;;;;;6.53;2.90;;;;;;;-1.14;100.00;99405.19;5041782;28;20228;-73
2023/11/28 07:44:50;;;;;;;5.57;3.17;;;;;;;-1.13;100.00;99401.66;5043251;28;21087;-73
2023/11/28 07:47:16;;;;;;;5.00;2.30;;;;;;;-1.13;100.00;99406.88;5042344;28;20210;-73
2023/11/28 07:49:43;;;;;;;5.40;3.00;;;;;;;-1.12;100.00;99415.56;5042614;28;20203;-74
2023/11/28 07:52:12;;;;;;;6.27;2.80;;;;;;;-1.12;100.00;99423.41;5041509;28;20225;-74
2023/11/28 07:54:38;;;;;;;5.33;3.07;;;;;;;-1.12;100.00;99423.41;5043637;28;20233;-74
2023/11/28 07:57:05;;;;;;;7.10;2.90;;;;;;;-1.13;100.00;99421.69;5044934;28;20601;-74
2023/11/28 07:59:32;;;;;;;6.57;2.73;;;;;;;-1.14;100.00;99428.69;5045395;28;20217;-74
2023/11/28 08:01:58;;;;;;;4.73;2.20;;;;;;;-1.14;100.00;99431.31;5049466;28;20232;-74
2023/11/28 08:04:24;;;;;;;3.40;1.83;;;;;;;-1.12;100.00;99439.09;5049632;28;20205;-74
2023/11/28 08:06:51;;;;;;;4.77;2.33;;;;;;;-1.13;100.00;99447.84;5050681;28;20217;-74
2023/11/28 08:09:19;;;;;;;4.83;2.17;;;;;;;-1.14;100.00;99441.75;5048461;28;20202;-74
2023/11/28 08:11:49;;;;;;;5.73;2.50;;;;;;;-1.14;100.00;99440.91;5050047;28;20225;-74
2023/11/28 08:14:15;;;;;;;3.53;2.20;;;;;;;-1.08;100.00;99453.75;5046131;28;20235;-73
2023/11/28 08:16:42;;;;;;;3.97;2.10;;;;;;;-1.10;100.00;99459.03;5052372;28;20237;-74
2023/11/28 08:19:08;;;;;;;3.40;2.10;;;;;;;-1.11;100.00;99456.47;5047792;28;20210;-73
2023/11/28 08:21:35;;;;;;;4.17;1.97;;;;;;;-1.10;100.00;99468.63;5048519;28;20244;-73
2023/11/28 08:24:01;;;;;;;5.90;1.80;;;;;;;-1.10;100.00;99472.09;5049307;28;20217;-74
2023/11/28 08:26:29;;;;;;;2.43;1.67;;;;;;;-1.13;100.00;99484.41;5047908;28;20214;-74
2023/11/28 08:28:56;;;;;;;3.53;2.07;;;;;;;-1.14;100.00;99488.78;5050780;28;20197;-74
2023/11/28 08:31:23;;;;;;;3.93;2.20;;;;;;;-1.13;99.80;99487.88;5046007;28;20215;-74
2023/11/28 08:33:50;;;;;;;5.33;2.20;;;;;;;-1.12;99.82;99492.19;5050093;28;20588;-73
2023/11/28 08:36:17;;;;;;;3.23;1.50;;;;;;;-1.14;99.90;99491.38;5044878;28;20249;-73
2023/11/28 08:38:43;;;;;;;3.60;2.20;;;;;;;-1.16;99.79;99492.34;5051825;28;20637;-74
2023/11/28 08:41:11;;;;;;;3.73;2.40;;;;;;;-1.16;99.23;99489.72;5048574;28;20205;-73
2023/11/28 08:43:39;;;;;;;3.50;1.90;;;;;;;-1.17;98.95;99506.31;5049993;28;20712;-74
2023/11/28 08:46:06;;;;;;;4.13;1.77;;;;;;;-1.24;98.32;99513.50;5047243;28;20263;-74
2023/11/28 08:48:32;;;;;;;3.00;1.77;;;;;;;-1.25;98.21;99505.69;5050418;28;20209;-74
2023/11/28 08:50:59;;;;;;;3.07;2.20;;;;;;;-1.28;97.79;99513.66;5049115;28;20596;-75
2023/11/28 08:53:25;;;;;;;2.80;1.53;;;;;;;-1.30;97.67;99510.25;5051082;28;20712;-74
2023/11/28 08:55:52;;;;;;;4.30;1.67;;;;;;;-1.38;97.42;99517.47;5039844;28;20225;-74
2023/11/28 08:58:18;;;;;;;3.10;1.60;;;;;;;-1.38;97.29;99520.09;5049099;28;20212;-72
2023/11/28 09:00:46;;;;;;;2.60;1.53;;;;;;;-1.41;97.46;99518.41;5044593;28;20229;-74
2023/11/28 09:03:13;;;;;;;2.87;1.80;;;;;;;-1.43;97.18;99533.28;5047537;28;20731;-73
2023/11/28 09:05:39;;;;;;;3.27;1.70;;;;;;;-1.47;97.15;99529.94;5046212;28;20275;-74
2023/11/28 09:08:05;;;;;;;2.37;1.70;;;;;;;-1.46;97.12;99536.88;5051964;28;20205;-72
2023/11/28 09:10:32;;;;;;;3.50;2.07;;;;;;;-1.43;97.49;99539.34;5048030;28;20213;-74
2023/11/28 09:12:58;;;;;;;3.07;1.60;;;;;;;-1.38;97.74;99540.97;5043396;28;20225;-74
2023/11/28 09:15:25;;;;;;;3.33;2.00;;;;;;;-1.34;98.03;99540.84;5045397;28;20240;-73
2023/11/28 09:17:53;;;;;;;3.60;1.57;;;;;;;-1.27;97.47;99544.97;5044196;28;20221;-73
2023/11/28 09:20:19;;;;;;;3.73;1.80;;;;;;;-1.21;97.86;99546.50;5045887;28;20205;-72
2023/11/28 09:22:47;;;;;;;3.87;1.77;;;;;;;-1.14;96.96;99551.47;5045719;28;20221;-74
2023/11/28 09:25:14;;;;;;;3.17;1.97;;;;;;;-1.08;96.59;99550.44;5044198;28;20275;-74
2023/11/28 09:27:41;;;;;;;5.50;2.20;;;;;;;-1.04;96.69;99552.00;5047098;28;20213;-74
2023/11/28 09:30:08;;;;;;;3.07;1.60;;;;;;;-0.95;96.61;99556.94;5044817;28;20668;-74
2023/11/28 09:32:35;;;;;;;3.60;1.80;;;;;;;-0.86;96.46;99568.81;5042247;28;20217;-74
2023/11/28 09:35:03;;;;;;;3.83;2.07;;;;;;;-0.79;95.80;99573.81;5045511;28;20342;-73
2023/11/28 09:37:29;;;;;;;2.47;1.53;;;;;;;-0.75;95.05;99571.94;5042818;28;20757;-74
2023/11/28 09:39:56;;;;;;;2.33;1.37;;;;;;;-0.74;94.94;99576.28;5046704;28;20206;-73
2023/11/28 09:42:23;;;;;;;3.83;2.20;;;;;;;-0.74;94.29;99571.03;5041705;28;20700;-72
2023/11/28 09:44:49;;;;;;;3.73;1.70;;;;;;;-0.73;94.13;99580.59;5044907;28;20214;-74
2023/11/28 09:47:17;;;;;;;1.90;1.50;;;;;;;-0.70;94.12;99572.63;5046064;28;20205;-74
2023/11/28 09:49:45;;;;;;;3.17;1.83;;;;;;;-0.70;93.75;99572.63;5044300;28;20369;-73
2023/11/28 09:52:15;;;;;;;3.27;1.83;;;;;;;-0.73;93.80;99573.59;5041971;28;20253;-73
2023/11/28 09:54:42;;;;;;;1.80;1.50;;;;;;;-0.73;93.78;99573.59;5045589;28;20296;-73
2023/11/28 09:57:10;;;;;;;2.43;1.50;;;;;;;-0.70;94.21;99578.69;5043484;28;20718;-73
2023/11/28 09:59:38;;;;;;;2.03;1.50;;;;;;;-0.71;93.51;99571.75;5042028;28;20206;-73
2023/11/28 10:02:05;;;;;;;1.80;1.40;;;;;;;-0.71;93.24;99586.59;5046143;28;20230;-73
2023/11/28 10:04:31;;;;;;;3.17;1.60;;;;;;;-0.72;93.62;99588.34;5043438;28;20201;-73
2023/11/28 10:07:03;;;;;;;3.87;1.43;;;;;;;-0.72;93.75;99585.75;5044555;28;20225;-72
2023/11/28 10:09:33;;;;;;;2.00;1.20;;;;;;;-0.72;92.94;99585.75;5041436;28;20218;-73
2023/11/28 10:12:00;;;;;;;3.10;1.77;;;;;;;-0.74;92.70;99582.34;5044206;28;20229;-72
2023/11/28 10:14:27;;;;;;;2.87;1.70;;;;;;;-0.71;93.32;99579.59;5042245;28;20202;-73
2023/11/28 10:16:54;;;;;;;2.03;1.43;;;;;;;-0.61;93.26;99589.75;5042517;28;20304;-73
2023/11/28 10:19:21;;;;;;;2.73;1.57;;;;;;;-0.53;93.59;99578.13;5043797;28;20209;-75
2023/11/28 10:21:48;;;;;;;2.43;1.43;;;;;;;-0.44;93.80;99587.41;5045330;28;20225;-73
2023/11/28 10:24:15;;;;;;;2.47;1.33;;;;;;;-0.37;94.36;99588.91;5042515;28;20228;-73
2023/11/28 10:26:43;;;;;;;3.03;1.53;;;;;;;-0.32;93.75;99589.56;5046806;28;20263;-74
2023/11/28 10:29:10;;;;;;;2.37;1.50;;;;;;;-0.24;93.61;99592.78;5045253;28;20221;-73
2023/11/28 10:31:37;;;;;;;2.30;1.60;;;;;;;-0.18;93.13;99597.78;5043847;28;20290;-73
2023/11/28 10:34:08;;;;;;;2.97;1.50;;;;;;;-0.18;93.33;99587.31;5044102;28;20194;-73
2023/11/28 10:36:39;;;;;;;1.53;1.13;;;;;;;-0.15;92.70;99595.06;5043355;28;20229;-71
2023/11/28 10:39:08;;;;;;;1.83;1.20;;;;;;;-0.15;92.80;99592.44;5043157;28;20201;-74
2023/11/28 10:41:34;;;;;;;4.90;1.80;;;;;;;-0.12;92.08;99602.78;5044676;28;20595;-74
2023/11/28 10:44:03;;;;;;;2.43;1.40;;;;;;;-0.11;92.61;99594.03;5039054;28;20213;-72
2023/11/28 10:46:30;;;;;;;2.07;1.27;;;;;;;-0.10;92.08;99600.13;5045160;28;20205;-72
2023/11/28 10:48:56;;;;;;;3.00;1.50;;;;;;;-0.09;92.07;99602.69;5044577;28;20669;-73
2023/11/28 10:51:23;;;;;;;2.23;1.50;;;;;;;-0.10;92.01;99607.97;5045154;28;20634;-72
2023/11/28 10:53:54;;;;;;;3.13;1.70;;;;;;;-0.11;92.68;99601.03;5045716;28;20205;-73
2023/11/28 10:56:22;;;;;;;2.07;1.50;;;;;;;-0.09;93.39;99607.06;5045033;28;20232;-75
2023/11/28 10:58:49;;;;;;;2.67;1.70;;;;;;;-0.07;93.22;99610.50;5043536;28;20213;-74
2023/11/28 11:01:19;;;;;;;3.00;2.20;;;;;;;-0.09;93.10;99607.91;5044871;28;20213;-72
2023/11/28 11:03:46;;;;;;;2.77;2.00;;;;;;;-0.08;93.73;99612.25;5049424;28;20198;-72
2023/11/28 11:06:13;;;;;;;2.70;2.13;;;;;;;-0.06;93.86;99620.91;5045750;28;20208;-73
2023/11/28 11:08:41;;;;;;;3.47;2.10;;;;;;;-0.07;94.13;99623.56;5046738;28;20213;-74
2023/11/28 11:11:08;;;;;;;2.20;1.97;;;;;;;-0.08;93.57;99612.25;5041046;28;20300;-73
2023/11/28 11:13:44;;;;;;;3.07;2.17;;;;;;;-0.09;93.21;99620.16;5040476;28;20210;-73
2023/11/28 11:16:20;;;;;;;1.80;1.63;;;;;;;-0.12;93.37;99618.50;5045210;28;20507;-72
2023/11/28 11:18:52;;;;;;;2.73;2.13;;;;;;;-0.14;93.51;99620.31;5044935;28;20581;-73
2023/11/28 11:21:23;;;;;;;3.30;2.40;;;;;;;-0.13;93.95;99624.63;5045007;28;20202;-73
2023/11/28 11:23:54;;;;;;;2.43;1.90;;;;;;;-0.10;94.19;99626.28;5044240;28;20233;-73
2023/11/28 11:26:29;;;;;;;2.73;1.80;;;;;;;-0.10;93.42;99631.53;5042163;28;20198;-72